Overview Statistics Trail Chart Weather Telemetry Raw packets
 

This is the latest recevied weather packets stored in our database for station/object LRTR. If no packets are shown the sender has not sent any weather packets the latest 10 day(s).

<< 5 6 7 8 9 10 11 >>
Time Temp. Humidity Pressure Rain* Wind** Luminosity Snow
1777577606 5° C 66% 1025 hPa - - - -
1777576688 5° C 66% 1024 hPa - - - -
1777575785 5° C 66% 1024 hPa - - - -
1777574885 6.11° C 66% 1024 hPa - - - -
1777573985 6.11° C 66% 1024 hPa - - - -
1777573085 8.89° C 50% 1024 hPa - - - -
1777572185 8.89° C 50% 1024 hPa - - - -
1777571285 11.11° C 44% 1023 hPa - - - -
1777570385 11.11° C 44% 1023 hPa - - - -
1777569485 12.78° C 31% 1023 hPa - - - -
1777568585 12.78° C 31% 1023 hPa - - - -
1777567687 13.89° C 29% 1023 hPa - - - -
1777566785 13.89° C 29% 1023 hPa - - - -
1777565885 15° C 27% 1022 hPa - - - -
1777564985 15° C 27% 1022 hPa - - - -
1777564085 15° C 29% 1022 hPa - - - -
1777563185 15° C 29% 1022 hPa - - - -
1777562284 15° C 31% 1022 hPa - - - -
1777561385 15° C 31% 1022 hPa - - - -
1777560485 16.11° C 29% 1022 hPa - - - -
1777559585 16.11° C 29% 1022 hPa - - - -
1777558685 16.11° C 29% 1022 hPa - - - -
1777557785 16.11° C 29% 1022 hPa - - - -
1777556885 16.11° C 27% 1022 hPa - - - -
1777555984 16.11° C 27% 1022 hPa - - - -

* Rain since midnight (hover to see other rain measurements)
** Current wind speed in m/s (hover to see current wind gust speed)